Time;durP1;ratioP1;P1;durP2;ratioP2;P2;SDS_P1;SDS_P2;PMS_P1;PMS_P2;Temp;Humidity;BMP_temperature;BMP_pressure;BME280_temperature;BME280_humidity;BME280_pressure;Samples;Min_cycle;Max_cycle;Signal;HPM_P1;HPM_P2
2021/06/08 00:02:15;;;;;;;3.85;3.45;;;;;;;17.12;78.44;100148.63;1688295;83;20988;-51
2021/06/08 00:04:41;;;;;;;3.72;3.25;;;;;;;17.10;78.54;100146.06;1740594;81;21499;-47
2021/06/08 00:07:08;;;;;;;4.78;3.25;;;;;;;17.07;78.70;100139.62;1740827;80;21016;-52
2021/06/08 00:09:34;;;;;;;4.75;2.98;;;;;;;17.04;78.74;100142.09;1749464;81;20978;-51
2021/06/08 00:12:01;;;;;;;3.33;2.85;;;;;;;17.01;78.79;100141.03;1738099;80;20941;-50
2021/06/08 00:14:27;;;;;;;4.22;3.17;;;;;;;16.99;79.01;100138.13;1748129;80;21459;-50
2021/06/08 00:16:54;;;;;;;4.72;3.37;;;;;;;16.98;79.19;100141.78;1740441;80;21012;-49
2021/06/08 00:19:20;;;;;;;4.70;3.42;;;;;;;16.94;79.26;100143.92;1739184;81;20999;-56
2021/06/08 00:21:46;;;;;;;5.42;3.15;;;;;;;16.94;79.41;100140.38;1743579;80;20982;-49
2021/06/08 00:24:13;;;;;;;4.33;3.33;;;;;;;16.93;79.51;100144.05;1738365;81;20905;-49
2021/06/08 00:26:39;;;;;;;3.80;3.27;;;;;;;16.90;79.68;100138.44;1742602;80;20972;-50
2021/06/08 00:29:06;;;;;;;3.55;2.65;;;;;;;16.88;79.92;100135.03;1741765;81;21512;-50
2021/06/08 00:31:32;;;;;;;3.95;2.77;;;;;;;16.85;80.20;100133.47;1747978;81;20964;-49
2021/06/08 00:33:58;;;;;;;4.00;2.92;;;;;;;16.85;80.39;100139.36;1734975;81;20956;-50
2021/06/08 00:36:25;;;;;;;4.10;3.25;;;;;;;16.83;80.39;100139.98;1744890;80;20980;-49
2021/06/08 00:38:51;;;;;;;4.42;3.05;;;;;;;16.81;80.41;100133.91;1739249;81;20984;-47
2021/06/08 00:41:20;;;;;;;3.92;3.52;;;;;;;16.80;80.47;100137.06;1743608;80;21592;-44
2021/06/08 00:43:46;;;;;;;7.03;4.90;;;;;;;16.79;80.58;100131.84;1744295;81;21462;-46
2021/06/08 00:46:13;;;;;;;7.78;3.72;;;;;;;16.76;80.61;100131.59;1742288;80;20905;-48
2021/06/08 00:48:39;;;;;;;4.50;3.40;;;;;;;16.75;80.60;100134.41;1740989;81;20992;-46
2021/06/08 00:51:05;;;;;;;4.75;3.27;;;;;;;16.73;80.74;100141.77;1739833;80;20993;-47
2021/06/08 00:53:32;;;;;;;4.33;3.33;;;;;;;16.75;80.82;100145.17;1744919;80;21428;-47
2021/06/08 00:55:58;;;;;;;3.98;3.20;;;;;;;16.74;80.98;100140.30;1738800;81;20936;-45
2021/06/08 00:58:25;;;;;;;3.77;3.37;;;;;;;16.74;81.17;100148.37;1735145;80;21000;-47
2021/06/08 01:00:51;;;;;;;3.95;2.90;;;;;;;16.72;81.26;100150.84;1714934;82;20952;-56
2021/06/08 01:03:18;;;;;;;3.37;3.08;;;;;;;16.71;81.32;100147.81;1715715;82;20969;-55
2021/06/08 01:05:44;;;;;;;4.60;3.08;;;;;;;16.68;81.53;100145.36;1713156;82;20984;-56
2021/06/08 01:08:11;;;;;;;4.83;3.27;;;;;;;16.65;81.77;100151.88;1720573;82;21068;-49
2021/06/08 01:10:38;;;;;;;4.08;3.12;;;;;;;16.63;81.85;100153.38;1714819;82;20999;-54
2021/06/08 01:13:04;;;;;;;6.35;3.50;;;;;;;16.63;81.80;100156.06;1716667;82;21433;-50
2021/06/08 01:15:31;;;;;;;4.28;3.15;;;;;;;16.63;81.93;100151.15;1725723;82;20943;-47
2021/06/08 01:17:58;;;;;;;4.58;3.25;;;;;;;16.62;82.17;100151.66;1717358;82;20941;-53
2021/06/08 01:20:25;;;;;;;5.28;4.12;;;;;;;16.62;82.21;100154.84;1718760;82;21004;-49
2021/06/08 01:22:51;;;;;;;8.53;4.72;;;;;;;16.63;82.21;100148.46;1712962;82;20945;-47
2021/06/08 01:25:18;;;;;;;5.97;4.58;;;;;;;16.63;82.21;100152.03;1718098;82;20945;-49
2021/06/08 01:27:44;;;;;;;6.78;4.22;;;;;;;16.63;82.28;100147.11;1687573;82;20993;-51
2021/06/08 01:30:13;;;;;;;6.90;6.22;;;;;;;16.62;82.35;100157.03;1714287;82;21949;-51
2021/06/08 01:32:41;;;;;;;8.55;7.53;;;;;;;16.61;82.51;100152.66;1712344;82;20941;-53
2021/06/08 01:35:09;;;;;;;5.50;4.55;;;;;;;16.61;82.78;100154.00;1693717;82;21008;-53
2021/06/08 01:37:38;;;;;;;6.17;4.08;;;;;;;16.57;82.89;100151.21;1710725;82;21807;-50
2021/06/08 01:40:07;;;;;;;5.83;4.15;;;;;;;16.55;83.23;100155.02;1715088;82;20968;-48
2021/06/08 01:42:35;;;;;;;5.70;3.72;;;;;;;16.56;83.36;100160.78;1712613;82;21312;-50
2021/06/08 01:45:02;;;;;;;3.50;3.15;;;;;;;16.54;83.50;100158.72;1697518;82;21366;-53
2021/06/08 01:47:28;;;;;;;5.70;3.90;;;;;;;16.52;83.55;100166.91;1713205;82;20968;-50
2021/06/08 01:49:55;;;;;;;5.40;3.52;;;;;;;16.50;83.70;100163.50;1717925;82;21519;-47
2021/06/08 01:52:38;;;;;;;7.80;3.92;;;;;;;16.48;83.83;100171.35;1717999;82;20957;-45
2021/06/08 01:55:16;;;;;;;3.92;3.42;;;;;;;16.43;83.88;100167.75;1717063;82;21985;-46
2021/06/08 01:57:54;;;;;;;4.72;3.55;;;;;;;16.44;84.09;100158.67;1657668;85;20989;-49
2021/06/08 02:00:54;;;;;;;6.58;4.87;;;;;;;16.42;84.23;100166.87;1656625;84;21012;-49
2021/06/08 02:03:34;;;;;;;5.37;4.70;;;;;;;16.43;84.31;100166.41;1670123;84;20979;-54
2021/06/08 02:06:22;;;;;;;4.92;3.77;;;;;;;16.42;84.53;100163.33;1679939;84;21004;-46
2021/06/08 02:09:13;;;;;;;4.08;3.67;;;;;;;16.42;84.62;100172.75;1686675;84;20954;-50
2021/06/08 02:12:02;;;;;;;5.90;3.20;;;;;;;16.39;84.59;100171.68;1677255;84;21509;-48
2021/06/08 02:14:37;;;;;;;3.83;3.50;;;;;;;16.36;84.81;100172.80;1687995;84;21038;-50
2021/06/08 02:17:38;;;;;;;4.72;3.30;;;;;;;16.34;84.86;100179.30;1685183;84;21401;-46
2021/06/08 02:20:15;;;;;;;4.55;3.55;;;;;;;16.30;84.95;100173.82;1684546;84;20999;-46
2021/06/08 02:22:45;;;;;;;6.10;3.35;;;;;;;16.30;85.18;100177.86;1672587;84;20968;-49
2021/06/08 02:25:12;;;;;;;3.65;3.08;;;;;;;16.26;85.40;100179.97;1673369;84;21016;-48
2021/06/08 02:27:39;;;;;;;5.47;3.60;;;;;;;16.26;85.48;100189.89;1646084;85;21468;-48
2021/06/08 02:30:07;;;;;;;4.83;3.17;;;;;;;16.23;85.48;100194.55;1666932;85;20940;-54
2021/06/08 02:32:33;;;;;;;4.62;3.35;;;;;;;16.26;85.76;100193.92;1662977;85;20960;-47
2021/06/08 02:35:00;;;;;;;4.08;3.47;;;;;;;16.25;85.79;100197.08;1697650;82;21453;-51
2021/06/08 02:37:26;;;;;;;4.62;3.75;;;;;;;16.25;85.82;100197.08;1725119;82;21483;-51
2021/06/08 02:39:53;;;;;;;18.05;7.53;;;;;;;16.23;85.79;100195.89;1726775;82;20958;-50
2021/06/08 02:42:20;;;;;;;6.42;4.65;;;;;;;16.22;85.91;100204.92;1713161;82;20933;-47
2021/06/08 02:44:47;;;;;;;5.00;4.30;;;;;;;16.22;86.01;100198.70;1721438;82;21394;-49
2021/06/08 02:47:15;;;;;;;5.62;4.25;;;;;;;16.21;86.07;100197.85;1716329;82;21428;-56
2021/06/08 02:49:41;;;;;;;7.35;3.45;;;;;;;16.21;86.19;100201.89;1713506;82;21003;-50
2021/06/08 02:52:08;;;;;;;5.47;4.08;;;;;;;16.23;86.33;100209.84;1693928;83;20964;-54
2021/06/08 02:54:34;;;;;;;4.97;3.30;;;;;;;16.24;86.42;100206.15;1719976;82;20936;-52
2021/06/08 02:57:01;;;;;;;6.12;3.95;;;;;;;16.23;86.47;100206.65;1719208;82;21008;-52
2021/06/08 02:59:29;;;;;;;6.28;4.03;;;;;;;16.24;86.71;100208.84;1697276;81;20988;-53
2021/06/08 03:01:57;;;;;;;5.58;3.62;;;;;;;16.27;86.74;100206.37;1714477;82;21005;-49
2021/06/08 03:04:27;;;;;;;6.83;4.50;;;;;;;16.28;86.65;100207.60;1713329;83;20992;-54
2021/06/08 03:06:55;;;;;;;6.12;3.80;;;;;;;16.29;86.62;100211.14;1709371;82;21935;-54
2021/06/08 03:09:31;;;;;;;5.25;4.05;;;;;;;16.29;86.64;100212.48;1710779;82;21472;-57
2021/06/08 03:11:58;;;;;;;4.50;3.55;;;;;;;16.28;86.66;100218.36;1658961;84;20973;-54
2021/06/08 03:14:25;;;;;;;4.00;3.60;;;;;;;16.28;86.61;100214.80;1638008;86;21477;-49
2021/06/08 03:16:59;;;;;;;4.78;3.83;;;;;;;16.28;86.72;100216.14;1656907;84;20941;-48
2021/06/08 03:19:34;;;;;;;4.70;3.95;;;;;;;16.27;86.88;100215.80;1658050;84;21348;-52
2021/06/08 03:22:05;;;;;;;5.65;3.58;;;;;;;16.27;87.14;100209.06;1655199;84;20990;-48
2021/06/08 03:24:33;;;;;;;6.55;3.80;;;;;;;16.29;87.39;100217.86;1640860;84;21053;-51
2021/06/08 03:27:00;;;;;;;4.58;3.47;;;;;;;16.32;87.67;100211.70;1658271;84;20977;-46
2021/06/08 03:29:29;;;;;;;6.20;3.92;;;;;;;16.37;87.97;100215.35;1658602;84;20958;-51
2021/06/08 03:31:56;;;;;;;5.28;3.90;;;;;;;16.41;88.13;100214.95;1634024;86;20961;-53
2021/06/08 03:34:23;;;;;;;6.50;3.65;;;;;;;16.44;88.27;100218.72;1604268;88;21520;-48
2021/06/08 03:36:52;;;;;;;5.72;3.87;;;;;;;16.48;88.17;100215.28;1604420;88;21012;-47
2021/06/08 03:39:20;;;;;;;5.28;4.10;;;;;;;16.54;87.96;100215.23;1588607;88;21061;-47
2021/06/08 03:41:47;;;;;;;4.50;4.10;;;;;;;16.57;87.88;100214.45;1624854;87;20981;-50
2021/06/08 03:44:15;;;;;;;5.47;4.42;;;;;;;16.61;87.84;100210.52;1612216;87;21529;-50
2021/06/08 03:46:43;;;;;;;6.17;3.75;;;;;;;16.65;87.74;100208.40;1611244;88;21373;-49
2021/06/08 03:49:11;;;;;;;6.80;4.95;;;;;;;16.68;87.62;100210.81;1612914;85;21024;-49
2021/06/08 03:51:37;;;;;;;6.33;4.10;;;;;;;16.73;87.71;100213.10;1637575;85;21045;-55
2021/06/08 03:54:04;;;;;;;5.80;4.42;;;;;;;16.78;87.60;100212.23;1666080;85;21940;-50
2021/06/08 03:56:31;;;;;;;4.60;4.15;;;;;;;16.80;87.66;100208.42;1671573;84;20977;-48
2021/06/08 03:58:58;;;;;;;5.30;4.80;;;;;;;16.83;87.64;100214.91;1681117;85;21447;-46
2021/06/08 04:01:25;;;;;;;5.10;4.60;;;;;;;16.86;87.62;100207.89;1646130;85;20988;-44
2021/06/08 04:03:51;;;;;;;6.92;4.30;;;;;;;16.90;87.51;100210.30;1675237;84;20992;-46
2021/06/08 04:06:18;;;;;;;4.97;4.47;;;;;;;16.95;87.38;100211.59;1725956;82;20921;-49
2021/06/08 04:08:45;;;;;;;6.05;4.30;;;;;;;17.00;87.54;100207.98;1713765;82;20980;-47
2021/06/08 04:11:11;;;;;;;5.97;4.35;;;;;;;17.06;87.33;100212.84;1720674;82;20992;-46
2021/06/08 04:13:40;;;;;;;5.17;4.12;;;;;;;17.11;87.07;100217.82;1722629;82;20953;-46
2021/06/08 04:16:08;;;;;;;5.22;4.58;;;;;;;17.15;87.11;100212.49;1690886;83;20987;-51
2021/06/08 04:18:39;;;;;;;4.65;4.25;;;;;;;17.20;87.04;100211.58;1653443;85;21004;-46
2021/06/08 04:21:06;;;;;;;5.50;5.00;;;;;;;17.26;87.31;100218.25;1706342;82;20975;-48
2021/06/08 04:23:32;;;;;;;6.37;5.12;;;;;;;17.28;87.17;100221.16;1720415;81;20952;-46
2021/06/08 04:25:59;;;;;;;7.60;4.80;;;;;;;17.33;87.17;100214.52;1702611;82;20948;-45
2021/06/08 04:28:26;;;;;;;5.65;4.92;;;;;;;17.36;87.18;100221.84;1720285;82;21310;-47
2021/06/08 04:30:55;;;;;;;5.33;4.15;;;;;;;17.38;87.23;100213.59;1718293;82;20988;-45
2021/06/08 04:33:27;;;;;;;5.75;5.15;;;;;;;17.39;87.62;100216.67;1696496;82;20921;-44
2021/06/08 04:35:53;;;;;;;6.28;5.65;;;;;;;17.41;87.81;100220.92;1721611;82;21047;-46
2021/06/08 04:38:20;;;;;;;5.17;4.40;;;;;;;17.46;87.47;100223.17;1720400;82;20984;-44
2021/06/08 04:40:48;;;;;;;4.60;4.20;;;;;;;17.51;87.08;100221.78;1717245;82;20960;-46
2021/06/08 04:43:21;;;;;;;5.72;5.00;;;;;;;17.58;86.94;100227.44;1722622;82;20942;-46
2021/06/08 04:45:47;;;;;;;5.70;4.87;;;;;;;17.64;86.92;100224.20;1701686;82;20974;-45
2021/06/08 04:48:13;;;;;;;5.83;5.22;;;;;;;17.71;86.71;100226.69;1722959;82;21358;-48
2021/06/08 04:50:40;;;;;;;4.87;4.33;;;;;;;17.74;86.38;100225.05;1690451;83;20960;-48
2021/06/08 04:53:06;;;;;;;7.20;4.62;;;;;;;17.80;86.31;100232.25;1715774;82;20964;-51
2021/06/08 04:55:33;;;;;;;6.55;5.03;;;;;;;17.87;86.48;100229.34;1720712;82;21471;-50
2021/06/08 04:57:59;;;;;;;6.42;5.33;;;;;;;17.93;85.95;100232.80;1720924;82;20951;-49
2021/06/08 05:00:39;;;;;;;6.92;4.85;;;;;;;17.99;85.90;100230.02;1717647;82;20952;-47
2021/06/08 05:03:18;;;;;;;5.05;4.30;;;;;;;18.03;85.67;100230.11;1756236;80;20987;-49
2021/06/08 05:05:49;;;;;;;5.80;5.17;;;;;;;18.11;85.15;100227.53;1738150;80;20970;-47
2021/06/08 05:08:34;;;;;;;4.87;4.20;;;;;;;18.15;84.96;100224.41;1749276;80;21016;-48
2021/06/08 05:11:19;;;;;;;5.65;4.50;;;;;;;18.21;84.92;100227.52;1751030;80;20996;-46
2021/06/08 05:13:48;;;;;;;5.45;4.92;;;;;;;18.25;83.82;100218.14;1757555;80;21389;-46
2021/06/08 05:16:15;;;;;;;6.90;4.28;;;;;;;18.28;83.49;100221.89;1755782;80;20988;-52
2021/06/08 05:18:43;;;;;;;5.22;4.65;;;;;;;18.35;83.59;100223.02;1751070;80;20939;-51
2021/06/08 05:21:12;;;;;;;6.37;4.60;;;;;;;18.41;83.78;100225.12;1725028;82;20952;-49
2021/06/08 05:23:38;;;;;;;8.78;5.25;;;;;;;18.48;83.32;100225.40;1747981;80;21020;-46
2021/06/08 05:26:05;;;;;;;7.70;5.15;;;;;;;18.53;82.72;100229.86;1730050;81;20992;-50
2021/06/08 05:28:34;;;;;;;5.33;4.83;;;;;;;18.56;82.68;100225.50;1751603;80;20975;-46
2021/06/08 05:31:00;;;;;;;8.23;4.60;;;;;;;18.63;81.82;100220.37;1740770;80;21009;-46
2021/06/08 05:33:26;;;;;;;6.67;4.75;;;;;;;18.67;81.36;100223.99;1751926;80;20979;-47
2021/06/08 05:35:54;;;;;;;6.17;4.17;;;;;;;18.73;80.66;100223.89;1749607;80;21479;-47
2021/06/08 05:38:32;;;;;;;7.40;4.75;;;;;;;18.76;80.42;100220.91;1756609;80;20924;-44
2021/06/08 05:41:06;;;;;;;4.50;4.10;;;;;;;18.81;80.99;100222.67;1742456;80;20944;-52
2021/06/08 05:43:33;;;;;;;5.33;4.12;;;;;;;18.86;80.63;100215.48;1716746;82;20944;-48
2021/06/08 05:45:59;;;;;;;5.40;4.90;;;;;;;18.91;80.01;100215.37;1749961;80;21007;-48
2021/06/08 05:48:29;;;;;;;5.35;3.67;;;;;;;18.96;79.52;100213.58;1746627;80;20940;-47
2021/06/08 05:50:56;;;;;;;5.67;3.80;;;;;;;19.02;79.04;100217.89;1751545;80;20967;-47
2021/06/08 05:53:23;;;;;;;8.85;3.70;;;;;;;19.07;78.32;100207.11;1721369;80;20959;-48
2021/06/08 05:55:51;;;;;;;4.78;3.22;;;;;;;19.11;77.61;100207.17;1750865;80;20956;-48
2021/06/08 05:58:30;;;;;;;6.42;3.98;;;;;;;19.16;77.55;100203.51;1753236;80;20930;-52
2021/06/08 06:00:58;;;;;;;3.72;3.00;;;;;;;19.21;77.48;100206.61;1745617;80;21039;-53
2021/06/08 06:03:25;;;;;;;6.03;3.58;;;;;;;19.28;77.63;100213.58;1739091;80;21437;-54
2021/06/08 06:05:52;;;;;;;4.65;3.00;;;;;;;19.33;77.46;100209.95;1748784;80;21444;-55
2021/06/08 06:08:19;;;;;;;4.95;3.00;;;;;;;19.36;75.86;100207.78;1742147;80;21023;-53
2021/06/08 06:10:45;;;;;;;6.42;2.98;;;;;;;19.42;75.86;100210.37;1742961;81;20929;-55
2021/06/08 06:13:23;;;;;;;3.30;2.80;;;;;;;19.46;75.91;100209.91;1710346;82;21386;-52
2021/06/08 06:15:49;;;;;;;3.52;3.02;;;;;;;19.52;75.40;100203.54;1740790;81;21519;-51
2021/06/08 06:18:19;;;;;;;3.33;2.70;;;;;;;19.57;74.35;100206.13;1742990;80;20950;-52
2021/06/08 06:20:47;;;;;;;2.72;2.42;;;;;;;19.62;74.19;100206.51;1739084;81;20968;-49
2021/06/08 06:23:20;;;;;;;6.10;5.08;;;;;;;19.68;73.68;100207.80;1737022;80;21031;-50
2021/06/08 06:25:47;;;;;;;3.70;3.22;;;;;;;19.74;73.05;100206.32;1740434;81;20961;-45
2021/06/08 06:28:14;;;;;;;10.55;8.55;;;;;;;19.79;72.84;100205.35;1743692;80;21483;-45
2021/06/08 06:30:41;;;;;;;3.98;3.10;;;;;;;19.85;72.32;100206.91;1742874;81;20996;-47
2021/06/08 06:33:07;;;;;;;4.92;2.72;;;;;;;19.89;70.98;100193.42;1711807;82;20945;-46
2021/06/08 06:35:34;;;;;;;3.22;2.25;;;;;;;19.94;69.90;100197.02;1743405;80;20960;-46
2021/06/08 06:38:06;;;;;;;4.75;2.42;;;;;;;19.97;69.37;100193.99;1743702;81;20924;-55
2021/06/08 06:40:33;;;;;;;2.77;2.20;;;;;;;19.97;67.75;100191.29;1743261;80;20966;-47
2021/06/08 06:43:02;;;;;;;2.37;2.10;;;;;;;19.98;67.59;100196.19;1743189;81;21424;-52
2021/06/08 06:45:31;;;;;;;3.00;2.60;;;;;;;20.00;66.13;100195.02;1731864;81;20940;-42
2021/06/08 06:48:04;;;;;;;4.97;2.12;;;;;;;20.02;66.78;100197.08;1742425;81;20960;-46
2021/06/08 06:50:36;;;;;;;2.98;2.30;;;;;;;20.05;66.72;100193.20;1744355;81;20991;-47
2021/06/08 06:53:03;;;;;;;2.58;2.00;;;;;;;20.07;67.17;100192.55;1740444;81;21456;-46
2021/06/08 06:55:30;;;;;;;6.37;2.90;;;;;;;20.12;67.38;100194.78;1737921;80;20970;-46
2021/06/08 06:57:56;;;;;;;3.67;2.67;;;;;;;20.18;67.96;100192.27;1738101;80;21323;-46
2021/06/08 07:00:24;;;;;;;3.72;2.50;;;;;;;20.26;68.24;100199.59;1739305;80;20969;-45
2021/06/08 07:02:52;;;;;;;4.22;2.27;;;;;;;20.32;68.66;100198.98;1744055;80;20944;-45
2021/06/08 07:05:22;;;;;;;2.47;2.20;;;;;;;20.37;66.70;100191.73;1741248;81;20988;-45
2021/06/08 07:07:49;;;;;;;4.97;2.40;;;;;;;20.41;66.94;100192.62;1740155;80;21539;-45
2021/06/08 07:10:17;;;;;;;3.05;2.75;;;;;;;20.48;66.39;100195.00;1747779;80;20913;-45
2021/06/08 07:12:45;;;;;;;2.25;1.90;;;;;;;20.52;64.66;100191.48;1738373;80;20993;-45
2021/06/08 07:15:12;;;;;;;3.17;2.37;;;;;;;20.56;64.42;100195.58;1718347;82;20950;-45
2021/06/08 07:17:39;;;;;;;1.67;1.55;;;;;;;20.58;63.80;100193.56;1739634;80;21043;-44
2021/06/08 07:20:07;;;;;;;3.55;2.17;;;;;;;20.60;63.13;100190.20;1734694;81;20942;-45
2021/06/08 07:22:34;;;;;;;4.92;2.27;;;;;;;20.64;63.48;100188.03;1739657;80;21511;-47
2021/06/08 07:25:03;;;;;;;4.28;1.90;;;;;;;20.69;64.30;100193.30;1734405;81;21010;-45
2021/06/08 07:27:31;;;;;;;5.67;2.30;;;;;;;20.76;62.22;100198.90;1733872;81;21641;-51
2021/06/08 07:29:59;;;;;;;3.40;2.37;;;;;;;20.80;60.44;100185.89;1740717;81;21527;-48
2021/06/08 07:32:46;;;;;;;4.42;2.02;;;;;;;20.82;60.27;100186.08;1725389;81;20984;-49
2021/06/08 07:35:42;;;;;;;3.30;2.10;;;;;;;20.83;60.75;100187.76;1739816;80;21554;-46
2021/06/08 07:38:56;;;;;;;4.70;1.67;;;;;;;20.89;60.83;100187.60;1740366;80;20979;-45
2021/06/08 07:41:40;;;;;;;3.77;2.72;;;;;;;20.98;60.58;100187.14;1733143;81;21521;-45
2021/06/08 07:44:11;;;;;;;2.98;2.25;;;;;;;21.05;59.72;100189.55;1704979;82;20978;-45
2021/06/08 07:46:38;;;;;;;3.15;2.33;;;;;;;21.09;59.83;100187.70;1736621;80;20992;-45
2021/06/08 07:49:05;;;;;;;3.10;2.10;;;;;;;21.15;61.19;100190.25;1738828;80;21081;-45
2021/06/08 07:51:32;;;;;;;2.92;2.40;;;;;;;21.21;60.62;100190.94;1740081;80;21498;-47
2021/06/08 07:53:58;;;;;;;3.35;2.10;;;;;;;21.25;59.60;100178.75;1740919;81;21016;-47
2021/06/08 07:56:26;;;;;;;2.50;2.30;;;;;;;21.31;59.31;100185.38;1735168;80;20933;-46
2021/06/08 07:58:53;;;;;;;2.42;2.15;;;;;;;21.35;58.28;100175.90;1716564;81;20937;-48
2021/06/08 08:01:20;;;;;;;3.62;2.00;;;;;;;21.38;58.40;100185.05;1733074;80;21424;-46
2021/06/08 08:03:48;;;;;;;2.10;1.90;;;;;;;21.45;58.76;100186.63;1736641;80;20964;-43
2021/06/08 08:06:16;;;;;;;1.70;1.60;;;;;;;21.49;58.62;100186.62;1714509;80;21042;-44
2021/06/08 08:08:43;;;;;;;3.22;2.40;;;;;;;21.54;58.27;100181.53;1713747;82;21411;-48
2021/06/08 08:11:14;;;;;;;2.12;1.80;;;;;;;21.58;57.67;100188.33;1714961;82;20989;-49
2021/06/08 08:13:42;;;;;;;1.95;1.55;;;;;;;21.61;58.13;100187.98;1717725;82;20928;-47
2021/06/08 08:16:09;;;;;;;3.92;1.77;;;;;;;21.67;57.70;100181.91;1707479;82;20981;-46
2021/06/08 08:18:37;;;;;;;2.47;1.82;;;;;;;21.73;57.55;100184.45;1713912;82;21457;-48
2021/06/08 08:21:08;;;;;;;3.33;2.72;;;;;;;21.79;56.31;100182.40;1705818;82;21630;-47
2021/06/08 08:23:35;;;;;;;3.40;2.10;;;;;;;21.83;55.80;100176.47;1711521;82;21005;-56
2021/06/08 08:26:05;;;;;;;2.80;2.20;;;;;;;21.88;56.08;100180.03;1708182;82;21010;-48
2021/06/08 08:28:34;;;;;;;1.70;1.50;;;;;;;21.94;56.39;100177.98;1714389;82;21313;-50
2021/06/08 08:31:04;;;;;;;3.62;1.92;;;;;;;21.97;55.01;100168.65;1706210;82;21027;-43
2021/06/08 08:33:30;;;;;;;2.55;1.82;;;;;;;22.00;55.82;100183.27;1716780;82;20989;-47
2021/06/08 08:35:58;;;;;;;2.47;1.90;;;;;;;22.02;56.00;100185.27;1710628;82;21564;-47
2021/06/08 08:38:24;;;;;;;3.60;1.70;;;;;;;22.03;55.25;100174.77;1709709;82;20974;-45
2021/06/08 08:40:51;;;;;;;1.75;1.65;;;;;;;22.03;55.37;100174.77;1713611;82;20973;-43
2021/06/08 08:43:18;;;;;;;3.10;2.00;;;;;;;22.04;56.31;100180.52;1709909;82;21469;-47
2021/06/08 08:46:03;;;;;;;3.62;2.30;;;;;;;22.08;56.33;100176.45;1714332;82;21403;-44
2021/06/08 08:48:31;;;;;;;1.82;1.60;;;;;;;22.14;55.86;100170.84;1714739;82;20966;-44
2021/06/08 08:50:57;;;;;;;3.37;2.27;;;;;;;22.19;55.85;100175.25;1710250;82;20970;-44
2021/06/08 08:53:24;;;;;;;3.83;1.80;;;;;;;22.24;55.97;100176.97;1715239;82;21029;-47
2021/06/08 08:55:50;;;;;;;5.08;1.42;;;;;;;22.28;54.87;100167.47;1715995;82;20965;-49
2021/06/08 08:58:17;;;;;;;4.08;1.92;;;;;;;22.32;54.66;100173.38;1718397;82;20958;-55
2021/06/08 09:00:44;;;;;;;2.90;1.60;;;;;;;22.35;54.62;100171.19;1713104;82;20942;-51
2021/06/08 09:03:14;;;;;;;2.70;1.85;;;;;;;22.38;53.85;100169.99;1708257;82;20962;-46
2021/06/08 09:05:42;;;;;;;2.58;2.10;;;;;;;22.41;53.13;100174.55;1718032;81;21017;-47
2021/06/08 09:08:09;;;;;;;4.12;1.90;;;;;;;22.45;53.53;100170.97;1699682;83;21914;-47
2021/06/08 09:10:37;;;;;;;3.12;1.90;;;;;;;22.49;52.91;100164.69;1748084;80;20988;-45
2021/06/08 09:13:04;;;;;;;2.60;2.35;;;;;;;22.53;53.81;100154.66;1748795;80;20956;-52
2021/06/08 09:15:31;;;;;;;3.45;1.82;;;;;;;22.62;54.11;100167.17;1742734;80;21440;-49
2021/06/08 09:17:59;;;;;;;3.67;1.90;;;;;;;22.68;53.27;100161.58;1758680;80;20980;-47
2021/06/08 09:20:26;;;;;;;2.02;1.80;;;;;;;22.71;53.09;100161.22;1747985;80;21298;-51
2021/06/08 09:22:56;;;;;;;2.10;1.45;;;;;;;22.75;52.88;100164.41;1721590;82;20996;-50
2021/06/08 09:25:41;;;;;;;2.33;1.60;;;;;;;22.71;51.84;100159.86;1746843;80;21007;-46
2021/06/08 09:28:32;;;;;;;2.02;1.82;;;;;;;22.69;51.25;100166.81;1748456;80;20975;-51
2021/06/08 09:31:15;;;;;;;2.52;1.40;;;;;;;22.70;51.17;100158.14;1753009;80;20948;-46
2021/06/08 09:33:44;;;;;;;2.35;1.92;;;;;;;22.75;52.46;100165.25;1747564;80;21475;-48
2021/06/08 09:36:18;;;;;;;2.15;1.65;;;;;;;22.79;51.36;100150.30;1752071;80;21361;-44
2021/06/08 09:39:03;;;;;;;5.78;1.98;;;;;;;22.80;51.86;100147.06;1751370;80;20980;-48
2021/06/08 09:41:49;;;;;;;3.83;1.98;;;;;;;22.80;51.46;100147.06;1756794;80;20955;-46
2021/06/08 09:44:18;;;;;;;2.25;2.02;;;;;;;22.78;49.53;100140.47;1746308;80;21008;-46
2021/06/08 09:46:54;;;;;;;1.72;1.60;;;;;;;22.75;50.10;100134.00;1751126;80;20944;-49
2021/06/08 09:49:35;;;;;;;3.75;1.62;;;;;;;22.76;50.68;100133.52;1745322;80;21588;-47
2021/06/08 09:52:07;;;;;;;3.52;1.45;;;;;;;22.75;51.23;100134.52;1757891;80;21442;-48
2021/06/08 09:54:44;;;;;;;3.75;1.52;;;;;;;22.77;52.08;100136.56;1751055;80;21928;-45
2021/06/08 09:57:27;;;;;;;1.92;1.42;;;;;;;22.83;50.32;100120.41;1753134;80;20948;-48
2021/06/08 10:00:07;;;;;;;3.47;2.12;;;;;;;22.96;51.00;100129.33;1714417;82;21012;-51
2021/06/08 10:02:45;;;;;;;2.85;2.17;;;;;;;23.03;50.84;100114.03;1703814;83;21007;-50
2021/06/08 10:05:22;;;;;;;3.30;1.87;;;;;;;23.11;51.09;100119.94;1696783;83;21845;-47
2021/06/08 10:07:55;;;;;;;2.08;1.87;;;;;;;23.16;51.38;100113.44;1703349;83;21000;-52
2021/06/08 10:10:23;;;;;;;3.80;2.15;;;;;;;23.21;51.53;100119.19;1693075;83;20968;-50
2021/06/08 10:12:59;;;;;;;3.15;1.72;;;;;;;23.28;52.40;100116.56;1659760;84;21490;-48
2021/06/08 10:15:30;;;;;;;2.98;1.80;;;;;;;23.37;52.34;100116.02;1660074;84;21346;-47
2021/06/08 10:18:03;;;;;;;2.05;1.77;;;;;;;23.44;50.57;100114.27;1661040;84;20972;-45
2021/06/08 10:20:36;;;;;;;2.35;1.70;;;;;;;23.47;49.57;100112.02;1714726;81;20959;-45
2021/06/08 10:23:29;;;;;;;2.52;1.57;;;;;;;23.52;49.69;100119.63;1722513;81;20940;-43
2021/06/08 10:25:58;;;;;;;2.42;1.47;;;;;;;23.58;48.88;100116.16;1718602;81;21004;-42
2021/06/08 10:28:25;;;;;;;1.02;0.93;;;;;;;23.64;47.90;100100.48;1719632;81;20996;-43
2021/06/08 10:30:52;;;;;;;1.52;1.05;;;;;;;23.67;47.38;100092.47;1720426;81;20972;-43
2021/06/08 10:33:21;;;;;;;2.95;1.27;;;;;;;23.70;45.44;100098.37;1726199;81;21000;-44
2021/06/08 10:35:47;;;;;;;6.37;2.15;;;;;;;23.73;45.91;100093.11;1726429;81;21763;-49
2021/06/08 10:38:14;;;;;;;2.33;1.77;;;;;;;23.74;46.10;100086.66;1693953;83;20972;-46
2021/06/08 10:40:41;;;;;;;5.22;3.87;;;;;;;23.74;47.11;100079.33;1721346;81;20964;-49
2021/06/08 10:43:23;;;;;;;3.62;2.30;;;;;;;23.73;48.12;100079.50;1711827;81;20959;-46
2021/06/08 10:45:51;;;;;;;4.35;2.17;;;;;;;23.75;48.39;100072.00;1723925;81;21661;-44
2021/06/08 10:48:21;;;;;;;3.27;2.25;;;;;;;23.78;48.82;100079.80;1713469;81;20987;-46
2021/06/08 10:50:49;;;;;;;2.22;2.00;;;;;;;23.81;49.47;100083.50;1724404;81;21002;-49
2021/06/08 10:53:34;;;;;;;5.45;2.05;;;;;;;23.82;49.45;100091.17;1723173;81;20968;-46
2021/06/08 10:56:03;;;;;;;3.92;2.12;;;;;;;23.80;49.73;100082.34;1650345;85;21057;-44
2021/06/08 10:58:43;;;;;;;4.12;2.08;;;;;;;23.79;49.76;100077.42;1634583;86;21849;-46
2021/06/08 11:01:42;;;;;;;5.70;2.65;;;;;;;23.81;50.05;100079.42;1656591;85;21445;-48
2021/06/08 11:04:16;;;;;;;3.08;2.40;;;;;;;23.81;49.98;100075.33;1655825;85;21837;-51
2021/06/08 11:06:57;;;;;;;2.85;2.40;;;;;;;23.80;49.89;100077.73;1640793;86;20999;-47
2021/06/08 11:09:32;;;;;;;3.65;2.47;;;;;;;23.78;50.83;100074.87;1642863;85;21054;-43
2021/06/08 11:12:09;;;;;;;2.87;2.42;;;;;;;23.77;50.78;100081.36;1637968;85;21041;-46
2021/06/08 11:14:54;;;;;;;2.52;2.30;;;;;;;23.77;51.23;100080.84;1647608;85;21053;-46
2021/06/08 11:17:40;;;;;;;2.25;2.05;;;;;;;23.74;50.16;100083.94;1639676;85;20979;-48
2021/06/08 11:20:15;;;;;;;3.65;2.20;;;;;;;23.73;49.25;100091.75;1643581;85;21010;-51
2021/06/08 11:22:50;;;;;;;3.25;2.10;;;;;;;23.77;49.54;100082.72;1640881;85;20958;-44
2021/06/08 11:25:37;;;;;;;3.05;2.02;;;;;;;23.83;49.75;100081.44;1638712;85;20967;-44
2021/06/08 11:28:14;;;;;;;5.60;2.40;;;;;;;23.92;50.42;100087.14;1640608;85;20979;-44
2021/06/08 11:30:44;;;;;;;6.45;2.98;;;;;;;24.03;49.72;100079.03;1645254;85;21015;-48
2021/06/08 11:33:32;;;;;;;3.67;2.55;;;;;;;24.10;50.83;100079.13;1679369;83;20987;-47
2021/06/08 11:36:20;;;;;;;3.60;2.87;;;;;;;24.10;52.61;100084.06;1655469;85;21472;-46
2021/06/08 11:38:53;;;;;;;3.98;3.30;;;;;;;24.07;53.40;100078.16;1654888;85;21010;-47
2021/06/08 11:41:20;;;;;;;6.83;3.08;;;;;;;24.08;54.24;100086.12;1600559;88;20996;-48